Time;durP1;ratioP1;P1;durP2;ratioP2;P2;SDS_P1;SDS_P2;PMS_P1;PMS_P2;Temp;Humidity;BMP_temperature;BMP_pressure;BME280_temperature;BME280_humidity;BME280_pressure;Samples;Min_cycle;Max_cycle;Signal;HPM_P1;HPM_P2
2023/10/17 10:31:38;;;;;;;2.30;1.40;;;;;;;13.35;48.99;96043.18;104609;1299;558144;-85
2023/10/17 10:34:07;;;;;;;2.80;1.40;;;;;;;13.92;46.13;96037.67;105854;1287;157743;-88
2023/10/17 10:36:36;;;;;;;1.90;1.30;;;;;;;14.24;45.99;96031.02;106208;1287;25458;-86
2023/10/17 10:39:13;;;;;;;1.80;1.40;;;;;;;14.48;44.75;96022.45;106164;1287;22540;-82
2023/10/17 10:42:00;;;;;;;3.10;1.30;;;;;;;14.91;44.63;96018.61;106077;1287;22830;-86
2023/10/17 10:44:29;;;;;;;1.80;1.30;;;;;;;15.27;42.45;96017.03;105953;1287;25236;-87
2023/10/17 10:46:57;;;;;;;1.80;1.10;;;;;;;15.32;40.90;96015.30;107014;1275;25281;-88
2023/10/17 10:49:30;;;;;;;2.10;1.20;;;;;;;15.67;41.66;96007.47;106721;1275;24410;-87
2023/10/17 10:51:59;;;;;;;;;;;;;;;16.11;40.98;96008.17;106712;1275;22541;-85
2023/10/17 10:54:49;;;;;;;2.30;1.10;;;;;;;16.25;38.21;96005.55;106808;1275;25220;-85
2023/10/17 10:57:30;;;;;;;1.30;1.10;;;;;;;16.56;37.36;95998.45;107162;1275;22705;-87
2023/10/17 11:00:00;;;;;;;2.20;1.00;;;;;;;16.91;36.89;95992.08;106765;1260;25122;-85
2023/10/17 11:02:30;;;;;;;2.90;1.10;;;;;;;17.25;35.77;95993.25;106846;1275;22531;-82
2023/10/17 11:04:59;;;;;;;2.40;1.20;;;;;;;17.40;35.76;95988.80;106819;1275;25968;-84
2023/10/17 11:07:27;;;;;;;2.80;1.10;;;;;;;17.61;35.26;95987.24;106920;1275;22465;-85
2023/10/17 11:10:07;;;;;;;1.20;0.90;;;;;;;17.92;35.76;95980.66;106806;1275;22661;-83
2023/10/17 11:12:35;;;;;;;1.40;0.90;;;;;;;18.22;35.41;95974.23;106798;1275;22785;-84
2023/10/17 11:15:26;;;;;;;1.50;0.90;;;;;;;18.45;34.13;95977.20;106813;1275;24252;-88
2023/10/17 11:18:00;;;;;;;1.30;1.00;;;;;;;18.47;32.70;95971.02;106922;1275;24206;-90
2023/10/17 11:20:29;;;;;;;1.90;1.00;;;;;;;18.69;32.34;95968.67;106843;1275;24250;-85
2023/10/17 11:22:58;;;;;;;1.10;1.00;;;;;;;18.90;32.03;95971.30;106796;1275;25807;-85
2023/10/17 11:25:26;;;;;;;2.70;1.10;;;;;;;18.91;31.21;95969.48;106742;1275;24189;-84
2023/10/17 11:28:07;;;;;;;1.10;0.90;;;;;;;18.94;30.84;95971.47;106757;1275;22542;-85
2023/10/17 11:30:42;;;;;;;1.40;1.00;;;;;;;19.20;32.06;95966.69;106792;1275;25388;-86
2023/10/17 11:33:14;;;;;;;1.70;1.30;;;;;;;19.42;30.29;95961.59;106725;1276;24250;-87
2023/10/17 11:35:53;;;;;;;2.30;1.00;;;;;;;19.49;29.86;95953.91;106676;1276;25350;-83
2023/10/17 11:38:33;;;;;;;1.30;0.90;;;;;;;19.79;29.68;95949.48;106996;1276;22584;-87
2023/10/17 11:41:17;;;;;;;2.20;0.80;;;;;;;19.82;28.72;95949.84;107078;1276;25236;-86
2023/10/17 11:43:53;;;;;;;2.10;0.90;;;;;;;19.50;28.04;95946.23;106790;1276;22537;-84
2023/10/17 11:46:32;;;;;;;2.70;1.30;;;;;;;19.38;27.91;95940.54;106688;1276;22539;-86
2023/10/17 11:49:21;;;;;;;2.10;1.10;;;;;;;19.84;29.03;95941.52;106618;1276;25236;-84
2023/10/17 11:52:15;;;;;;;2.00;1.10;;;;;;;20.21;28.05;95939.88;106795;1275;25446;-86
2023/10/17 11:54:55;;;;;;;1.10;0.90;;;;;;;20.25;27.90;95932.48;106893;1276;22650;-85
2023/10/17 11:57:25;;;;;;;1.30;0.90;;;;;;;20.36;28.26;95930.30;106762;1276;24196;-84
2023/10/17 12:00:07;;;;;;;1.50;1.10;;;;;;;20.42;28.05;95934.65;106656;1276;24039;-88
2023/10/17 12:02:41;;;;;;;1.70;1.10;;;;;;;20.59;27.53;95932.36;106814;1276;22572;-85
2023/10/17 12:05:18;;;;;;;2.20;1.00;;;;;;;20.82;27.98;95930.80;106696;1276;22763;-83
2023/10/17 12:07:57;;;;;;;2.40;1.20;;;;;;;20.90;26.64;95933.60;106823;1276;25452;-81
2023/10/17 12:10:28;;;;;;;1.30;0.90;;;;;;;20.89;26.71;95931.84;106911;1276;25223;-80
2023/10/17 12:13:06;;;;;;;2.80;0.90;;;;;;;20.94;27.37;95925.17;106678;1276;24079;-81
2023/10/17 12:15:34;;;;;;;1.80;1.00;;;;;;;21.28;27.18;95920.58;106810;1276;24367;-82
2023/10/17 12:18:03;;;;;;;2.30;1.10;;;;;;;21.32;26.28;95918.23;106948;1276;22526;-84
2023/10/17 12:20:31;;;;;;;1.50;1.20;;;;;;;21.33;26.85;95915.51;106841;1276;25619;-85
2023/10/17 12:23:00;;;;;;;1.30;1.10;;;;;;;21.59;26.91;95914.22;106915;1276;22522;-86
2023/10/17 12:25:32;;;;;;;1.60;1.00;;;;;;;21.50;26.87;95913.84;106725;1276;22638;-85
2023/10/17 12:28:02;;;;;;;1.40;1.10;;;;;;;21.50;26.68;95912.02;106709;1276;22553;-86
2023/10/17 12:30:35;;;;;;;1.80;1.20;;;;;;;21.55;26.58;95911.98;106847;1276;22519;-82
2023/10/17 12:33:05;;;;;;;1.60;1.10;;;;;;;21.30;26.15;95915.13;106846;1276;22979;-84
2023/10/17 12:35:34;;;;;;;2.70;1.30;;;;;;;21.13;26.53;95908.90;106776;1276;25245;-81
2023/10/17 12:40:48;;;;;;;4.60;1.30;;;;;;;21.30;26.93;95903.30;106541;1276;22555;-83
2023/10/17 12:43:16;;;;;;;1.80;1.00;;;;;;;21.56;26.04;95894.17;106671;1276;22551;-80
2023/10/17 12:45:44;;;;;;;3.10;1.20;;;;;;;21.80;26.50;95887.05;106820;1276;22618;-85
2023/10/17 12:48:14;;;;;;;3.90;2.40;;;;;;;21.81;26.11;95887.55;106773;1275;22528;-81
2023/10/17 12:50:46;;;;;;;2.30;1.40;;;;;;;21.74;26.30;95884.55;106662;1276;22609;-82
2023/10/17 12:53:14;;;;;;;4.30;1.40;;;;;;;21.72;26.76;95884.27;106683;1276;22613;-81
2023/10/17 12:55:42;;;;;;;2.10;1.50;;;;;;;21.91;27.08;95883.92;106669;1276;22541;-82
2023/10/17 12:58:10;;;;;;;1.90;1.40;;;;;;;22.30;26.38;95876.59;106711;1276;25233;-82
2023/10/17 13:00:41;;;;;;;2.00;1.60;;;;;;;22.59;26.19;95877.14;106677;1276;24196;-83
2023/10/17 13:03:09;;;;;;;2.60;1.30;;;;;;;22.60;25.32;95873.70;106722;1276;22545;-83
2023/10/17 13:05:37;;;;;;;1.90;1.20;;;;;;;22.51;25.28;95878.15;106792;1276;22526;-83
2023/10/17 13:08:07;;;;;;;2.80;1.80;;;;;;;22.10;25.13;95874.39;106714;1276;24360;-84
2023/10/17 13:10:35;;;;;;;2.20;1.50;;;;;;;22.05;25.67;95877.40;106678;1276;25271;-80
2023/10/17 13:13:03;;;;;;;3.10;1.50;;;;;;;21.79;25.69;95877.27;106663;1276;24192;-81
2023/10/17 13:15:31;;;;;;;13.10;9.10;;;;;;;21.68;26.19;95874.33;106663;1276;22549;-81
2023/10/17 13:18:03;;;;;;;2.80;1.90;;;;;;;21.85;25.62;95870.81;106664;1276;25377;-80
2023/10/17 13:20:32;;;;;;;3.00;1.40;;;;;;;22.07;25.93;95870.26;106878;1276;24005;-83
2023/10/17 13:23:20;;;;;;;2.40;2.10;;;;;;;22.56;25.79;95870.52;106680;1276;24382;-83
2023/10/17 13:25:49;;;;;;;1.80;1.30;;;;;;;22.60;25.33;95869.54;106718;1276;25272;-82
2023/10/17 13:28:17;;;;;;;3.20;2.70;;;;;;;22.53;24.61;95861.96;106747;1272;22530;-82
2023/10/17 13:30:46;;;;;;;3.60;2.00;;;;;;;22.08;24.84;95855.16;106640;1276;22786;-80
2023/10/17 13:33:14;;;;;;;2.70;2.20;;;;;;;21.81;26.64;95855.48;106640;1276;24249;-81
2023/10/17 13:35:42;;;;;;;2.40;1.80;;;;;;;21.44;29.21;95856.02;106688;1276;22544;-81
2023/10/17 13:38:10;;;;;;;3.70;2.70;;;;;;;20.78;31.65;95865.54;106637;1276;22535;-82
2023/10/17 13:40:39;;;;;;;2.00;1.30;;;;;;;19.96;32.09;95865.03;106732;1276;24196;-82
2023/10/17 13:43:07;;;;;;;3.10;1.40;;;;;;;19.26;34.24;95867.77;106665;1276;22531;-84
2023/10/17 13:45:41;;;;;;;6.60;2.10;;;;;;;18.60;35.24;95871.61;106647;1276;22533;-84
2023/10/17 13:48:11;;;;;;;3.40;2.10;;;;;;;18.24;34.97;95870.19;106759;1276;24266;-84
2023/10/17 13:50:40;;;;;;;11.40;3.10;;;;;;;17.46;34.80;95870.09;106700;1276;22542;-83
2023/10/17 13:53:09;;;;;;;26.60;11.70;;;;;;;17.29;38.27;95870.08;106653;1276;22581;-84
2023/10/17 13:55:41;;;;;;;4.90;2.10;;;;;;;17.55;38.65;95875.03;106759;1276;22546;-83
2023/10/17 13:58:11;;;;;;;4.20;2.10;;;;;;;17.91;37.75;95870.91;106677;1276;22479;-85
2023/10/17 14:01:02;;;;;;;3.50;2.00;;;;;;;17.47;38.68;95881.23;106781;1276;23903;-85
2023/10/17 14:03:31;;;;;;;3.00;2.30;;;;;;;16.65;39.65;95887.66;106710;1276;24253;-85
2023/10/17 14:06:00;;;;;;;2.50;1.60;;;;;;;16.28;39.57;95884.77;106723;1276;25521;-86
2023/10/17 14:08:34;;;;;;;3.10;1.80;;;;;;;15.72;40.07;95886.35;106825;1276;24196;-86
2023/10/17 14:11:06;;;;;;;3.40;1.60;;;;;;;15.01;41.63;95884.23;106720;1276;25356;-88
2023/10/17 14:13:38;;;;;;;2.90;1.40;;;;;;;14.43;42.08;95881.88;106676;1276;23886;-86
2023/10/17 14:16:06;;;;;;;4.20;1.60;;;;;;;13.95;43.35;95882.14;106683;1276;24228;-88
2023/10/17 14:21:34;;;;;;;3.40;2.20;;;;;;;12.86;45.60;95888.90;106434;1276;24275;-86
2023/10/17 14:24:07;;;;;;;4.60;2.00;;;;;;;12.45;46.90;95894.56;106721;1276;22540;-87
2023/10/17 14:26:35;;;;;;;2.50;1.50;;;;;;;12.11;47.52;95895.61;106680;1276;22782;-87
2023/10/17 14:29:05;;;;;;;2.50;1.90;;;;;;;11.76;48.09;95893.42;106676;1276;22545;-87
2023/10/17 14:31:33;;;;;;;2.30;1.60;;;;;;;11.34;50.04;95889.59;106803;1275;22735;-87
2023/10/17 14:34:02;;;;;;;2.10;1.40;;;;;;;11.04;49.78;95889.55;106670;1276;22659;-87
2023/10/17 14:36:30;;;;;;;2.40;1.60;;;;;;;10.81;49.64;95886.36;106702;1276;24522;-87
2023/10/17 14:38:59;;;;;;;1.60;1.50;;;;;;;10.63;50.47;95883.64;106633;1276;22526;-84
2023/10/17 14:41:28;;;;;;;2.70;1.40;;;;;;;10.46;50.26;95878.95;106713;1276;23924;-84
2023/10/17 14:43:56;;;;;;;2.80;1.60;;;;;;;10.26;50.42;95880.42;106752;1276;24377;-84
2023/10/17 14:46:25;;;;;;;3.90;1.40;;;;;;;9.99;53.32;95881.25;106649;1276;22653;-84
2023/10/17 14:48:53;;;;;;;2.40;1.50;;;;;;;9.71;52.64;95885.09;106719;1276;25318;-84
2023/10/17 14:51:22;;;;;;;5.80;1.60;;;;;;;9.59;52.82;95884.34;106734;1276;24251;-84
2023/10/17 14:53:50;;;;;;;2.60;1.60;;;;;;;9.40;53.84;95893.48;106678;1276;24368;-84
2023/10/17 14:56:21;;;;;;;3.00;1.50;;;;;;;9.19;54.79;95889.80;106758;1276;24340;-85
2023/10/17 14:58:50;;;;;;;1.70;1.40;;;;;;;8.97;56.02;95886.64;107105;1276;24196;-86
2023/10/17 15:01:19;;;;;;;2.40;1.30;;;;;;;8.72;56.41;95886.65;106660;1276;22576;-86
2023/10/17 15:03:50;;;;;;;2.90;1.60;;;;;;;8.44;56.88;95888.20;106627;1276;24060;-85
2023/10/17 15:06:19;;;;;;;2.50;1.60;;;;;;;8.30;56.92;95885.27;106946;1276;22523;-84
2023/10/17 15:08:47;;;;;;;2.20;1.40;;;;;;;8.18;58.05;95882.36;107019;1276;22654;-84
2023/10/17 15:11:16;;;;;;;1.80;1.50;;;;;;;8.03;59.50;95880.66;107039;1276;24263;-84
2023/10/17 15:13:44;;;;;;;3.60;1.50;;;;;;;7.82;61.34;95881.98;106611;1275;22530;-85
2023/10/17 15:16:14;;;;;;;4.60;1.50;;;;;;;7.67;60.46;95887.27;106663;1275;24372;-83
2023/10/17 15:18:44;;;;;;;2.30;1.40;;;;;;;7.53;60.03;95891.52;106769;1276;22544;-84
2023/10/17 15:21:13;;;;;;;2.10;1.40;;;;;;;7.43;60.31;95890.82;106676;1276;22536;-84
2023/10/17 15:23:42;;;;;;;3.50;1.50;;;;;;;7.31;61.30;95892.41;106789;1276;24196;-85
2023/10/17 15:26:11;;;;;;;2.20;1.60;;;;;;;7.14;61.79;95893.83;106705;1276;24266;-84
2023/10/17 15:28:48;;;;;;;1.90;1.50;;;;;;;6.96;64.16;95894.02;106669;1276;24234;-84
2023/10/17 15:31:16;;;;;;;2.60;1.90;;;;;;;6.80;64.86;95894.52;106679;1266;22523;-83
2023/10/17 15:33:45;;;;;;;2.50;1.60;;;;;;;6.75;64.46;95894.88;106704;1276;25542;-86
2023/10/17 15:36:13;;;;;;;2.30;1.40;;;;;;;6.67;66.54;95897.48;106881;1276;22612;-85
2023/10/17 15:38:43;;;;;;;3.60;1.90;;;;;;;6.52;66.52;95896.05;107010;1276;24196;-85
2023/10/17 15:41:14;;;;;;;2.20;1.50;;;;;;;6.39;66.96;95899.70;106882;1276;24192;-86
2023/10/17 15:43:43;;;;;;;2.70;1.60;;;;;;;6.21;66.96;95893.53;106672;1276;22533;-86
2023/10/17 15:46:14;;;;;;;3.40;1.60;;;;;;;6.16;66.77;95897.54;106709;1276;22524;-86
2023/10/17 15:48:43;;;;;;;2.30;1.40;;;;;;;6.07;65.93;95894.02;106763;1276;22521;-86
2023/10/17 15:51:19;;;;;;;1.90;1.50;;;;;;;6.01;66.65;95893.11;106658;1276;22644;-87
2023/10/17 15:53:47;;;;;;;3.10;1.70;;;;;;;5.92;66.04;95898.29;106776;1276;22524;-86
2023/10/17 15:56:15;;;;;;;2.80;1.70;;;;;;;5.90;67.55;95900.38;106649;1276;25388;-89
2023/10/17 15:58:45;;;;;;;2.90;1.90;;;;;;;5.74;68.82;95907.27;106781;1266;22801;-89
2023/10/17 16:01:14;;;;;;;2.30;2.00;;;;;;;5.60;68.10;95911.05;106820;1276;22530;-87
2023/10/17 16:03:46;;;;;;;3.40;1.80;;;;;;;5.57;68.12;95919.23;106621;1276;24811;-86
2023/10/17 16:06:15;;;;;;;3.20;1.80;;;;;;;5.52;68.33;95916.40;106679;1265;24253;-86
2023/10/17 16:08:45;;;;;;;3.10;2.30;;;;;;;5.43;68.47;95920.02;106724;1276;24371;-86
2023/10/17 16:11:16;;;;;;;2.60;1.50;;;;;;;5.36;69.03;95916.82;106722;1276;22700;-86
2023/10/17 16:13:44;;;;;;;2.50;2.00;;;;;;;5.30;69.06;95924.29;106678;1273;22526;-86
2023/10/17 16:16:13;;;;;;;4.50;2.10;;;;;;;5.22;70.10;95928.41;106664;1276;22556;-86
2023/10/17 16:18:41;;;;;;;3.70;1.70;;;;;;;5.13;69.10;95931.14;106736;1276;22535;-86
2023/10/17 16:21:09;;;;;;;4.20;2.60;;;;;;;5.10;69.95;95930.75;106719;1276;22662;-86
2023/10/17 16:23:38;;;;;;;4.60;2.00;;;;;;;5.00;70.97;95934.86;106894;1276;23150;-86
2023/10/17 16:26:08;;;;;;;3.30;2.20;;;;;;;4.84;70.43;95936.29;106723;1276;22522;-86
2023/10/17 16:28:37;;;;;;;3.20;1.90;;;;;;;4.81;70.31;95935.40;106729;1276;22538;-86
2023/10/17 16:31:08;;;;;;;2.50;1.80;;;;;;;4.78;70.08;95938.14;106677;1276;22560;-86
2023/10/17 16:33:39;;;;;;;5.00;2.10;;;;;;;4.72;71.03;95946.98;106602;1275;22539;-86
2023/10/17 16:36:07;;;;;;;3.50;2.60;;;;;;;4.69;70.25;95942.77;106781;1276;25488;-86
2023/10/17 16:38:35;;;;;;;4.90;1.90;;;;;;;4.65;70.97;95946.05;106727;1276;24344;-86
2023/10/17 16:41:04;;;;;;;3.20;1.70;;;;;;;4.61;71.39;95949.84;106663;1276;24337;-86
2023/10/17 16:43:32;;;;;;;4.00;2.20;;;;;;;4.53;71.09;95949.23;106888;1276;22544;-85
2023/10/17 16:46:00;;;;;;;2.50;1.80;;;;;;;4.46;72.40;95953.86;106645;1276;22536;-83
2023/10/17 16:48:29;;;;;;;2.90;2.20;;;;;;;4.40;72.10;95956.74;106860;1276;25318;-86
2023/10/17 16:50:58;;;;;;;2.30;1.90;;;;;;;4.29;72.15;95955.77;106701;1276;23958;-86
2023/10/17 16:53:28;;;;;;;2.10;1.70;;;;;;;4.18;72.51;95955.64;106848;1276;24259;-86
2023/10/17 16:55:57;;;;;;;2.80;2.00;;;;;;;4.12;73.68;95955.57;106685;1276;24263;-86
2023/10/17 16:58:26;;;;;;;4.50;2.00;;;;;;;4.08;72.84;95954.83;106780;1276;24330;-84
2023/10/17 17:01:05;;;;;;;2.90;2.10;;;;;;;4.10;72.47;95952.59;107035;1276;22621;-84
2023/10/17 17:03:37;;;;;;;3.30;2.30;;;;;;;4.04;72.52;95951.46;107025;1276;22530;-84
2023/10/17 17:06:05;;;;;;;3.00;1.50;;;;;;;3.99;72.63;95946.89;107017;1276;25357;-85
2023/10/17 17:08:34;;;;;;;3.30;2.10;;;;;;;3.96;74.36;95949.98;106809;1276;22531;-86
2023/10/17 17:11:04;;;;;;;4.70;2.10;;;;;;;3.91;75.10;95950.08;106725;1276;22537;-86
2023/10/17 17:13:33;;;;;;;3.10;1.90;;;;;;;3.91;74.05;95951.66;106689;1276;24454;-85
2023/10/17 17:16:03;;;;;;;4.80;2.40;;;;;;;3.92;74.60;95952.70;106688;1276;24083;-86
2023/10/17 17:18:31;;;;;;;9.70;4.00;;;;;;;3.81;75.23;95952.04;106776;1276;23136;-86
2023/10/17 17:21:08;;;;;;;6.60;3.70;;;;;;;3.77;75.30;95952.67;106595;1276;22779;-86
2023/10/17 17:23:39;;;;;;;3.30;2.10;;;;;;;3.74;74.91;95952.30;106646;1276;22541;-86
2023/10/17 17:26:13;;;;;;;3.00;2.20;;;;;;;3.81;74.61;95952.91;106693;1276;22526;-86
2023/10/17 17:28:43;;;;;;;4.60;2.60;;;;;;;3.81;74.36;95953.78;106700;1276;22739;-86
2023/10/17 17:31:13;;;;;;;4.60;2.60;;;;;;;3.75;74.65;95955.44;106599;1276;24377;-86
2023/10/17 17:33:42;;;;;;;2.80;2.00;;;;;;;3.67;74.60;95959.17;106699;1276;22547;-86
2023/10/17 17:36:11;;;;;;;3.50;2.10;;;;;;;3.75;74.49;95958.20;106644;1276;24699;-86
2023/10/17 17:38:40;;;;;;;3.10;2.40;;;;;;;3.81;73.97;95959.17;106730;1276;22682;-85
2023/10/17 17:41:13;;;;;;;2.80;2.10;;;;;;;3.80;73.90;95960.73;106651;1276;24202;-86
2023/10/17 17:43:43;;;;;;;5.20;3.20;;;;;;;3.64;74.44;95964.16;106725;1276;25497;-86
2023/10/17 17:46:12;;;;;;;5.60;3.30;;;;;;;3.60;74.20;95969.33;106733;1276;22666;-85
2023/10/17 17:48:43;;;;;;;7.20;3.50;;;;;;;3.56;74.32;95977.61;106713;1276;22532;-85
2023/10/17 17:51:15;;;;;;;9.00;3.20;;;;;;;3.54;74.38;95978.27;106629;1276;24226;-85
2023/10/17 17:53:44;;;;;;;5.00;2.40;;;;;;;3.50;74.78;95977.00;106687;1276;22527;-85
2023/10/17 17:56:13;;;;;;;4.50;2.20;;;;;;;3.45;74.62;95974.52;106706;1276;22612;-85
2023/10/17 17:58:46;;;;;;;4.70;3.10;;;;;;;3.38;74.11;95972.66;106663;1276;22528;-86
2023/10/17 18:01:16;;;;;;;6.90;2.80;;;;;;;3.27;74.73;95970.56;106749;1276;25223;-85
2023/10/17 18:03:45;;;;;;;5.70;2.70;;;;;;;3.17;75.58;95972.66;106665;1276;22529;-86
2023/10/17 18:06:17;;;;;;;4.10;2.80;;;;;;;3.09;76.34;95973.75;106601;1253;23028;-85
2023/10/17 18:08:46;;;;;;;4.90;2.60;;;;;;;3.09;75.79;95977.58;106677;1276;22526;-85
2023/10/17 18:11:14;;;;;;;4.20;2.70;;;;;;;3.01;76.74;95979.20;106764;1276;25389;-85
2023/10/17 18:13:42;;;;;;;6.10;3.40;;;;;;;2.90;77.86;95971.70;106664;1276;25405;-85
2023/10/17 18:16:14;;;;;;;5.90;3.20;;;;;;;2.83;77.07;95973.51;106731;1276;22538;-84
2023/10/17 18:18:43;;;;;;;2.70;2.40;;;;;;;2.79;76.46;95974.13;106569;1275;22525;-84
2023/10/17 18:21:13;;;;;;;5.80;2.70;;;;;;;2.84;75.99;95977.51;106759;1276;23316;-84
2023/10/17 18:23:43;;;;;;;3.30;2.20;;;;;;;2.82;77.09;95981.98;106648;1276;24776;-84
2023/10/17 18:26:19;;;;;;;5.10;2.90;;;;;;;2.72;78.10;95990.34;106671;1276;22531;-84
2023/10/17 18:28:48;;;;;;;4.10;2.90;;;;;;;2.62;77.94;95987.89;106867;1276;22624;-84
2023/10/17 18:31:21;;;;;;;5.00;3.60;;;;;;;2.56;78.25;95994.55;106674;1276;25389;-83
2023/10/17 18:33:50;;;;;;;6.60;4.10;;;;;;;2.52;78.15;95996.21;106650;1272;25259;-85
2023/10/17 18:36:18;;;;;;;7.00;4.00;;;;;;;2.49;77.16;95999.63;106744;1276;24263;-83
2023/10/17 18:38:46;;;;;;;5.80;3.90;;;;;;;2.52;77.14;95999.86;106651;1276;22530;-83
2023/10/17 18:41:14;;;;;;;6.80;3.80;;;;;;;2.53;76.80;95992.25;106636;1276;25498;-84
2023/10/17 18:43:46;;;;;;;6.30;4.10;;;;;;;2.57;77.87;95995.95;106735;1275;24331;-83
2023/10/17 18:46:18;;;;;;;3.20;2.20;;;;;;;2.54;77.35;95988.79;106665;1276;25419;-83
2023/10/17 18:48:47;;;;;;;;;;;;;;;2.55;76.96;95991.39;106735;1276;24381;-83
2023/10/17 18:51:23;;;;;;;7.10;3.10;;;;;;;2.58;77.35;95994.23;106706;1276;25366;-84
2023/10/17 18:53:51;;;;;;;5.30;3.20;;;;;;;2.54;78.18;95994.87;106639;1276;22520;-84
2023/10/17 18:56:21;;;;;;;7.00;4.20;;;;;;;2.54;78.18;95996.61;106683;1276;22543;-83
2023/10/17 18:58:49;;;;;;;7.70;4.00;;;;;;;2.50;78.18;95996.17;106761;1276;22539;-83
2023/10/17 19:01:17;;;;;;;4.70;2.70;;;;;;;2.44;77.66;95994.33;106697;1276;25248;-83
2023/10/17 19:03:46;;;;;;;4.00;2.90;;;;;;;2.45;77.63;95991.58;106694;1275;22646;-83
2023/10/17 19:06:15;;;;;;;4.70;2.80;;;;;;;2.46;77.97;95994.71;106658;1276;25201;-83
2023/10/17 19:08:43;;;;;;;4.70;3.20;;;;;;;2.47;78.15;95996.12;106705;1276;26491;-83
2023/10/17 19:11:12;;;;;;;5.50;3.30;;;;;;;2.46;78.73;95995.41;106748;1276;22477;-83
2023/10/17 19:13:41;;;;;;;7.50;3.40;;;;;;;2.38;78.58;95995.60;106655;1276;22651;-83
2023/10/17 19:16:15;;;;;;;6.50;2.90;;;;;;;2.27;78.58;95994.68;106680;1276;25338;-83
2023/10/17 19:18:44;;;;;;;5.30;2.70;;;;;;;2.25;77.94;95993.95;106693;1276;22541;-82
2023/10/17 19:21:14;;;;;;;5.40;3.00;;;;;;;2.24;78.15;95994.80;107012;1276;25325;-83
2023/10/17 19:23:48;;;;;;;3.40;2.60;;;;;;;2.29;78.02;95994.20;106832;1276;22519;-83
2023/10/17 19:26:18;;;;;;;3.10;2.60;;;;;;;2.23;78.32;95994.45;106647;1276;24210;-83
2023/10/17 19:28:47;;;;;;;3.40;2.40;;;;;;;2.11;78.14;95995.06;106671;1276;25288;-82
2023/10/17 19:31:17;;;;;;;5.00;3.00;;;;;;;2.08;77.99;95990.13;106711;1276;22573;-83
2023/10/17 19:33:46;;;;;;;4.00;2.30;;;;;;;2.07;77.52;95990.14;106654;1276;22775;-82
2023/10/17 19:36:19;;;;;;;2.40;1.90;;;;;;;2.09;77.39;95987.39;106683;1276;22608;-83
2023/10/17 19:38:47;;;;;;;5.70;3.10;;;;;;;1.98;78.85;95988.55;106690;1275;24248;-83
2023/10/17 19:41:15;;;;;;;3.90;2.50;;;;;;;1.90;78.93;95988.91;106634;1276;22623;-83
2023/10/17 19:43:43;;;;;;;4.50;2.60;;;;;;;1.85;78.78;95989.65;106689;1276;25703;-83
2023/10/17 19:46:13;;;;;;;4.60;2.30;;;;;;;1.79;78.33;95992.16;106731;1276;25258;-83
2023/10/17 19:48:43;;;;;;;2.40;2.20;;;;;;;1.75;79.66;95992.22;106677;1276;25395;-83
2023/10/17 19:51:11;;;;;;;4.30;2.70;;;;;;;1.69;79.11;95988.98;106655;1275;22517;-82
2023/10/17 19:53:42;;;;;;;6.10;2.50;;;;;;;1.65;79.49;95991.15;106667;1276;24228;-83
2023/10/17 19:56:10;;;;;;;5.10;3.20;;;;;;;1.57;80.68;95992.37;106677;1276;23697;-83
2023/10/17 19:58:39;;;;;;;4.90;2.80;;;;;;;1.52;80.79;95991.88;106649;1276;22536;-83
2023/10/17 20:01:08;;;;;;;7.40;4.70;;;;;;;1.46;80.22;95991.08;106670;1276;22533;-83
2023/10/17 20:03:39;;;;;;;4.00;3.10;;;;;;;1.47;79.81;95984.16;106754;1276;25590;-84
2023/10/17 20:06:07;;;;;;;4.40;3.00;;;;;;;1.48;80.61;95980.36;106767;1270;22975;-84
2023/10/17 20:08:36;;;;;;;4.80;3.00;;;;;;;1.44;80.82;95986.70;106667;1276;22611;-83
2023/10/17 20:11:05;;;;;;;3.80;2.70;;;;;;;1.41;80.34;95985.40;106632;1253;22527;-83
2023/10/17 20:13:33;;;;;;;5.90;2.70;;;;;;;1.42;80.45;95984.21;106746;1276;22655;-84
2023/10/17 20:16:06;;;;;;;4.80;2.60;;;;;;;1.46;80.53;95986.04;106698;1276;22537;-84
2023/10/17 20:18:36;;;;;;;3.20;2.20;;;;;;;1.51;80.62;95987.55;106658;1276;25213;-85
2023/10/17 20:21:06;;;;;;;2.60;2.20;;;;;;;1.51;79.99;95982.34;106705;1276;22536;-84
2023/10/17 20:23:38;;;;;;;4.30;2.20;;;;;;;1.55;80.35;95983.29;106742;1276;25478;-83
2023/10/17 20:26:07;;;;;;;4.00;2.60;;;;;;;1.54;79.84;95986.39;106708;1276;24231;-83
2023/10/17 20:28:35;;;;;;;4.60;2.60;;;;;;;1.50;80.37;95987.36;106739;1266;22785;-84
2023/10/17 20:31:03;;;;;;;10.30;4.20;;;;;;;1.52;79.69;95983.73;106677;1276;24553;-85
2023/10/17 20:33:52;;;;;;;4.00;2.40;;;;;;;1.49;79.21;95977.61;106596;1276;25328;-83
2023/10/17 20:36:21;;;;;;;3.10;2.30;;;;;;;1.54;79.83;95975.45;106733;1276;24846;-83
2023/10/17 20:38:49;;;;;;;4.50;2.40;;;;;;;1.59;79.83;95974.20;106650;1276;24824;-83
2023/10/17 20:41:27;;;;;;;3.60;2.50;;;;;;;1.60;80.05;95969.36;106691;1276;22530;-84
2023/10/17 20:43:55;;;;;;;6.90;3.30;;;;;;;1.61;79.64;95967.81;106882;1276;22645;-83
2023/10/17 20:46:24;;;;;;;5.90;4.10;;;;;;;1.49;79.35;95968.77;106743;1276;25217;-83
2023/10/17 20:48:59;;;;;;;8.90;3.90;;;;;;;1.43;79.51;95972.95;106810;1276;22584;-83
2023/10/17 20:51:27;;;;;;;4.40;3.30;;;;;;;1.46;79.55;95967.65;106709;1276;22533;-83
2023/10/17 20:53:55;;;;;;;4.60;3.10;;;;;;;1.47;79.25;95967.69;106686;1266;25655;-83
2023/10/17 20:56:23;;;;;;;4.70;3.50;;;;;;;1.40;79.33;95968.58;106734;1276;24350;-83
2023/10/17 20:59:10;;;;;;;4.70;2.90;;;;;;;1.41;79.23;95970.14;106665;1276;22554;-83
2023/10/17 21:01:38;;;;;;;5.60;2.50;;;;;;;1.38;79.72;95969.39;107027;1276;24413;-83
2023/10/17 21:04:07;;;;;;;3.00;2.00;;;;;;;1.35;79.83;95967.76;106898;1276;22630;-83
2023/10/17 21:06:35;;;;;;;16.60;9.00;;;;;;;1.26;80.23;95968.59;106939;1276;25536;-83
2023/10/17 21:09:05;;;;;;;6.00;3.80;;;;;;;1.13;80.50;95964.99;106628;1276;22666;-83
2023/10/17 21:11:33;;;;;;;4.90;2.90;;;;;;;1.09;80.52;95961.09;106659;1276;22533;-83
2023/10/17 21:14:01;;;;;;;3.80;2.90;;;;;;;1.07;81.25;95956.18;106677;1275;25423;-83
2023/10/17 21:16:29;;;;;;;5.70;3.20;;;;;;;1.04;82.13;95955.78;106714;1276;22901;-83
2023/10/17 21:18:57;;;;;;;5.20;2.70;;;;;;;1.04;81.52;95954.74;106659;1276;24210;-83
2023/10/17 21:21:26;;;;;;;7.60;2.70;;;;;;;1.09;82.00;95954.52;106827;1276;22644;-83
2023/10/17 21:23:54;;;;;;;5.90;2.70;;;;;;;1.10;81.42;95951.58;106571;1263;23535;-83
2023/10/17 21:26:23;;;;;;;4.30;2.90;;;;;;;1.11;81.98;95956.79;106636;1276;22544;-83
2023/10/17 21:28:52;;;;;;;5.20;3.20;;;;;;;1.11;82.29;95960.77;106652;1276;23020;-83
2023/10/17 21:31:20;;;;;;;4.80;2.80;;;;;;;1.11;82.96;95951.79;106683;1276;25245;-83
2023/10/17 21:33:48;;;;;;;4.00;2.60;;;;;;;1.12;82.86;95947.80;106396;1276;23879;-83
2023/10/17 21:36:16;;;;;;;9.70;4.80;;;;;;;1.07;82.11;95943.02;106976;1276;22653;-82
2023/10/17 21:38:45;;;;;;;10.50;5.50;;;;;;;1.02;82.00;95938.05;106726;1276;22527;-83
2023/10/17 21:41:13;;;;;;;23.70;10.40;;;;;;;0.98;81.96;95939.69;106635;1266;22533;-83
2023/10/17 21:43:41;;;;;;;35.10;12.70;;;;;;;0.99;82.18;95938.67;106660;1276;23751;-83
2023/10/17 21:46:11;;;;;;;14.70;6.80;;;;;;;1.04;82.42;95933.27;106694;1276;25285;-83
2023/10/17 21:48:44;;;;;;;7.60;4.60;;;;;;;1.07;82.54;95932.12;106747;1276;25245;-83
2023/10/17 21:51:14;;;;;;;9.30;4.30;;;;;;;1.11;82.12;95931.17;106707;1276;25238;-83
2023/10/17 21:53:44;;;;;;;7.50;4.40;;;;;;;1.20;82.74;95932.05;106682;1276;22523;-83
2023/10/17 21:56:14;;;;;;;6.50;4.00;;;;;;;1.29;82.40;95930.38;106633;1276;24423;-83
2023/10/17 21:58:46;;;;;;;8.10;4.90;;;;;;;1.36;82.06;95928.96;106581;1276;25335;-83
2023/10/17 22:01:20;;;;;;;20.30;8.70;;;;;;;1.43;81.32;95930.49;106697;1276;24377;-83
2023/10/17 22:03:49;;;;;;;12.90;6.00;;;;;;;1.46;80.61;95928.83;106633;1276;24206;-83
2023/10/17 22:06:20;;;;;;;6.10;3.40;;;;;;;1.50;81.07;95929.45;106726;1276;26509;-83
2023/10/17 22:08:49;;;;;;;3.70;2.60;;;;;;;1.55;80.70;95930.77;106738;1274;22539;-83
2023/10/17 22:11:18;;;;;;;3.60;2.50;;;;;;;1.53;80.73;95928.80;106680;1276;25284;-83
2023/10/17 22:13:52;;;;;;;17.30;7.80;;;;;;;1.45;80.46;95928.45;106767;1276;22641;-83
2023/10/17 22:16:20;;;;;;;52.60;20.60;;;;;;;1.31;80.02;95931.09;106702;1276;22538;-84
2023/10/17 22:18:49;;;;;;;31.80;13.00;;;;;;;1.21;80.90;95926.72;106744;1276;25497;-83
2023/10/17 22:21:21;;;;;;;28.20;12.60;;;;;;;1.17;81.50;95927.66;106741;1276;24350;-83